Time;durP1;ratioP1;P1;durP2;ratioP2;P2;SDS_P1;SDS_P2;PMS_P1;PMS_P2;Temp;Humidity;BMP_temperature;BMP_pressure;BME280_temperature;BME280_humidity;BME280_pressure;Samples;Min_cycle;Max_cycle;Signal;HPM_P1;HPM_P2
2023/04/06 00:00:48;;;;;;;10.48;5.05;;;20.50;58.80;;;;;;4960688;28;87711;-87
2023/04/06 00:03:14;;;;;;;8.52;4.88;;;20.50;58.70;;;;;;4961050;28;87389;-90
2023/04/06 00:05:40;;;;;;;10.23;5.18;;;20.50;58.80;;;;;;4959050;28;90886;-86
2023/04/06 00:08:06;;;;;;;11.50;4.88;;;20.50;58.70;;;;;;4960942;28;87624;-89
2023/04/06 00:10:31;;;;;;;7.82;4.53;;;20.50;59.00;;;;;;4960113;28;87123;-89
2023/04/06 00:12:58;;;;;;;11.57;6.30;;;20.50;58.80;;;;;;4975958;28;89478;-90
2023/04/06 00:15:24;;;;;;;6.60;4.53;;;20.40;58.80;;;;;;4962981;28;88344;-87
2023/04/06 00:21:15;;;;;;;8.50;4.32;;;20.40;58.80;;;;;;4979320;28;86855;-90
2023/04/06 00:23:41;;;;;;;8.80;4.90;;;20.40;58.80;;;;;;4980930;28;86980;-90
2023/04/06 00:26:09;;;;;;;11.27;5.57;;;20.40;58.70;;;;;;4961995;28;90693;-86
2023/04/06 00:28:34;;;;;;;9.13;4.60;;;20.40;58.60;;;;;;4981026;28;87922;-86
2023/04/06 00:31:00;;;;;;;7.85;4.55;;;20.40;58.70;;;;;;4980047;28;88424;-86
2023/04/06 00:33:25;;;;;;;7.63;4.88;;;20.40;58.70;;;;;;4980507;28;87196;-89
2023/04/06 00:35:51;;;;;;;12.75;5.20;;;20.30;58.60;;;;;;4976585;28;89105;-89
2023/04/06 00:38:17;;;;;;;10.15;4.80;;;20.30;58.70;;;;;;4975080;28;87825;-90
2023/04/06 00:40:46;;;;;;;10.45;5.30;;;20.30;58.70;;;;;;4977416;28;86988;-89
2023/04/06 00:43:13;;;;;;;9.05;4.85;;;20.30;58.80;;;;;;4976578;28;86993;-89
2023/04/06 00:45:40;;;;;;;8.93;4.90;;;20.30;58.60;;;;;;4979343;28;91289;-89
2023/04/06 00:48:13;;;;;;;11.65;5.55;;;20.20;58.70;;;;;;4978388;28;90337;-87
2023/04/06 00:50:39;;;;;;;8.60;5.22;;;20.30;59.20;;;;;;4980133;28;86879;-89
2023/04/06 00:53:05;;;;;;;7.60;4.65;;;20.30;59.30;;;;;;4971914;28;87029;-90
2023/04/06 00:55:30;;;;;;;7.22;4.53;;;20.30;58.60;;;;;;4977349;28;92105;-88
2023/04/06 01:01:18;;;;;;;9.25;4.63;;;20.20;58.50;;;;;;4959752;28;87394;-87
2023/04/06 01:03:47;;;;;;;7.13;4.43;;;20.20;58.60;;;;;;4953700;28;87491;-90
2023/04/06 01:06:13;;;;;;;8.18;4.40;;;20.20;58.60;;;;;;4972798;28;91816;-89
2023/04/06 01:08:38;;;;;;;10.27;5.00;;;20.20;58.50;;;;;;4995301;28;91213;-87
2023/04/06 01:17:55;;;;;;;7.53;4.60;;;20.20;58.40;;;;;;4966861;28;88890;-88
2023/04/06 01:20:21;;;;;;;8.95;4.90;;;20.10;58.40;;;;;;4960370;28;88394;-86
2023/04/06 01:22:46;;;;;;;8.20;4.78;;;20.10;58.40;;;;;;4960186;28;87895;-90
2023/04/06 01:25:12;;;;;;;6.30;4.05;;;20.10;58.40;;;;;;4959298;28;87450;-89
2023/04/06 01:27:38;;;;;;;10.18;4.85;;;20.10;58.50;;;;;;4959159;28;88185;-88
2023/04/06 01:30:05;;;;;;;7.90;4.38;;;20.10;58.40;;;;;;4942251;28;90165;-90
2023/04/06 01:32:30;;;;;;;9.23;4.40;;;20.10;58.40;;;;;;4959247;28;87092;-88
2023/04/06 01:34:56;;;;;;;6.93;4.43;;;20.10;58.50;;;;;;4976015;28;87576;-87
2023/04/06 01:37:22;;;;;;;7.40;4.15;;;20.10;58.40;;;;;;4960153;28;90090;-90
2023/04/06 01:39:47;;;;;;;7.65;4.47;;;20.10;58.50;;;;;;4976929;28;88192;-88
2023/04/06 01:42:13;;;;;;;7.30;4.28;;;20.10;58.50;;;;;;4960431;28;87487;-90
2023/04/06 01:44:38;;;;;;;9.52;4.80;;;20.10;58.40;;;;;;4966489;28;87669;-90
2023/04/06 01:47:04;;;;;;;7.30;4.20;;;20.00;58.40;;;;;;4977070;28;89260;-90
2023/04/06 01:49:30;;;;;;;10.63;5.15;;;20.00;58.30;;;;;;4977628;28;87957;-90
2023/04/06 01:51:56;;;;;;;6.82;4.10;;;20.00;58.40;;;;;;4967188;28;87786;-90
2023/04/06 01:54:21;;;;;;;6.10;3.75;;;20.00;58.50;;;;;;4976664;28;87924;-87
2023/04/06 01:56:48;;;;;;;7.15;3.80;;;20.00;58.40;;;;;;4969282;28;88064;-90
2023/04/06 01:59:14;;;;;;;5.68;4.05;;;20.00;58.40;;;;;;4976218;28;87305;-89
2023/04/06 02:01:42;;;;;;;8.05;4.60;;;20.00;58.40;;;;;;4960332;28;87731;-89
2023/04/06 02:04:26;;;;;;;6.78;4.30;;;19.90;58.40;;;;;;4976842;28;88153;-89
2023/04/06 02:06:51;;;;;;;7.97;4.15;;;20.00;58.30;;;;;;4961752;28;89271;-90
2023/04/06 02:09:17;;;;;;;6.53;4.10;;;20.00;58.20;;;;;;4957884;28;90412;-89
2023/04/06 02:11:42;;;;;;;8.80;4.72;;;20.00;58.20;;;;;;4958826;28;96443;-90
2023/04/06 02:14:08;;;;;;;8.40;4.40;;;20.00;58.20;;;;;;4959885;28;87565;-90
2023/04/06 02:19:55;;;;;;;8.25;4.60;;;20.00;58.20;;;;;;4973551;28;90270;-90
2023/04/06 02:22:21;;;;;;;8.27;4.30;;;20.00;58.10;;;;;;4978871;28;87402;-87
2023/04/06 02:24:47;;;;;;;7.00;4.10;;;20.00;58.20;;;;;;4978369;28;87451;-90
2023/04/06 02:27:14;;;;;;;7.35;4.22;;;20.00;58.10;;;;;;4977944;28;88091;-90
2023/04/06 02:29:39;;;;;;;7.22;4.30;;;20.00;58.20;;;;;;4978847;28;88227;-90
2023/04/06 02:32:05;;;;;;;7.60;4.50;;;20.00;58.90;;;;;;4967935;28;87520;-89
2023/04/06 02:47:58;;;;;;;6.75;3.97;;;19.90;58.20;;;;;;4978096;28;87433;-89
2023/04/06 02:50:24;;;;;;;8.32;4.20;;;19.90;57.90;;;;;;4978005;28;88328;-90
2023/04/06 02:52:49;;;;;;;5.72;3.47;;;19.90;57.90;;;;;;4993236;28;91355;-90
2023/04/06 02:55:15;;;;;;;6.63;3.88;;;19.90;58.00;;;;;;4978405;28;87484;-90
2023/04/06 02:57:41;;;;;;;8.98;5.05;;;19.90;58.00;;;;;;4978660;28;87441;-90
2023/04/06 03:00:07;;;;;;;5.20;3.92;;;19.90;58.10;;;;;;4978241;28;87511;-86
2023/04/06 03:02:33;;;;;;;6.25;3.95;;;19.90;57.90;;;;;;4977704;28;87845;-86
2023/04/06 03:04:58;;;;;;;7.25;3.85;;;19.90;58.00;;;;;;4978297;28;87912;-89
2023/04/06 03:07:24;;;;;;;6.15;3.40;;;19.80;58.00;;;;;;4978617;28;87259;-89
2023/04/06 03:09:50;;;;;;;7.05;3.85;;;19.80;57.90;;;;;;4978096;28;88674;-90
2023/04/06 03:12:15;;;;;;;6.80;4.10;;;19.80;58.00;;;;;;4978229;28;88520;-89
2023/04/06 03:14:41;;;;;;;5.90;3.75;;;19.80;57.90;;;;;;4978444;28;87408;-89
2023/04/06 03:17:06;;;;;;;6.45;4.00;;;19.80;57.90;;;;;;4978370;28;87565;-89
2023/04/06 03:19:32;;;;;;;5.05;3.30;;;19.80;57.90;;;;;;4973716;28;88494;-89
2023/04/06 03:21:59;;;;;;;6.90;4.03;;;19.80;58.00;;;;;;4958595;28;88222;-88
2023/04/06 03:24:24;;;;;;;6.25;3.55;;;19.80;58.00;;;;;;4927890;28;87289;-89
2023/04/06 03:26:50;;;;;;;6.53;4.20;;;19.80;58.10;;;;;;4932450;28;87404;-89
2023/04/06 03:29:16;;;;;;;7.05;4.00;;;19.80;58.10;;;;;;4938557;28;89165;-88
2023/04/06 03:31:41;;;;;;;5.45;3.30;;;19.70;58.00;;;;;;4939726;28;88441;-89
2023/04/06 03:34:07;;;;;;;5.38;3.60;;;19.70;57.90;;;;;;4939138;28;87438;-87
2023/04/06 03:36:34;;;;;;;5.57;3.90;;;19.80;58.00;;;;;;4931877;28;87148;-90
2023/04/06 03:39:00;;;;;;;5.93;3.47;;;19.70;57.80;;;;;;4932291;28;88578;-89
2023/04/06 03:41:33;;;;;;;6.22;4.03;;;19.70;58.00;;;;;;4957619;28;87584;-89
2023/04/06 03:43:59;;;;;;;7.10;3.90;;;19.70;57.90;;;;;;4958143;28;87044;-89
2023/04/06 03:46:25;;;;;;;4.30;2.90;;;19.70;57.90;;;;;;4941578;28;88988;-89
2023/04/06 03:48:50;;;;;;;4.97;3.13;;;19.70;57.90;;;;;;4958770;28;89479;-86
2023/04/06 03:51:16;;;;;;;5.43;3.28;;;19.70;58.00;;;;;;4943507;28;90361;-90
2023/04/06 03:53:42;;;;;;;6.90;3.72;;;19.70;58.00;;;;;;4960915;28;88277;-89
2023/04/06 03:56:08;;;;;;;4.97;3.50;;;19.70;58.00;;;;;;4961269;28;95087;-90
2023/04/06 03:58:34;;;;;;;4.68;2.90;;;19.60;57.80;;;;;;4944595;28;91793;-90
2023/04/06 04:01:00;;;;;;;5.07;3.10;;;19.60;57.80;;;;;;4960939;28;87707;-89
2023/04/06 04:03:27;;;;;;;5.57;3.45;;;19.70;58.00;;;;;;4961757;28;87223;-89
2023/04/06 04:05:53;;;;;;;3.58;2.75;;;19.70;58.00;;;;;;4960969;28;94305;-89
2023/04/06 04:08:19;;;;;;;6.15;3.78;;;19.60;57.80;;;;;;4960720;28;88572;-90
2023/04/06 04:10:45;;;;;;;7.25;3.58;;;19.60;57.70;;;;;;4961476;28;87706;-90
2023/04/06 04:13:10;;;;;;;7.10;3.95;;;19.60;57.90;;;;;;4960552;28;87133;-90
2023/04/06 04:15:36;;;;;;;6.38;3.38;;;19.60;57.80;;;;;;4960968;28;87216;-90
2023/04/06 04:18:02;;;;;;;5.43;3.63;;;19.60;57.90;;;;;;4959998;28;89023;-90
2023/04/06 04:20:28;;;;;;;5.57;3.17;;;19.60;57.90;;;;;;4972184;28;88883;-89
2023/04/06 04:22:54;;;;;;;6.38;3.45;;;19.60;58.00;;;;;;4981225;28;87631;-89
2023/04/06 04:25:30;;;;;;;5.32;3.35;;;19.60;57.90;;;;;;4981060;28;87349;-89
2023/04/06 04:27:56;;;;;;;4.32;3.22;;;19.50;57.80;;;;;;4960968;28;90051;-89
2023/04/06 04:30:21;;;;;;;6.38;3.53;;;19.50;57.70;;;;;;4954261;28;90194;-90
2023/04/06 04:32:47;;;;;;;8.93;3.90;;;19.50;57.80;;;;;;4979842;28;87351;-89
2023/04/06 04:35:13;;;;;;;5.78;3.28;;;19.50;57.90;;;;;;4966939;28;88360;-89
2023/04/06 04:37:40;;;;;;;4.70;3.05;;;19.50;58.00;;;;;;4979300;28;88316;-89
2023/04/06 04:40:06;;;;;;;6.30;3.83;;;19.50;57.90;;;;;;4980409;28;87814;-88
2023/04/06 04:42:32;;;;;;;6.60;4.05;;;19.50;57.90;;;;;;4966638;28;88590;-90
2023/04/06 04:44:57;;;;;;;5.18;3.50;;;19.50;57.90;;;;;;4979581;28;87130;-89
2023/04/06 04:47:23;;;;;;;4.78;3.50;;;19.50;57.90;;;;;;4971656;28;88542;-87
2023/04/06 04:49:48;;;;;;;4.22;2.75;;;19.50;57.90;;;;;;4980625;28;87820;-90
2023/04/06 04:52:14;;;;;;;5.07;3.05;;;19.50;57.70;;;;;;4980286;28;87519;-90
2023/04/06 04:54:41;;;;;;;5.15;3.25;;;19.50;57.90;;;;;;4980336;28;87820;-90
2023/04/06 04:57:06;;;;;;;4.32;2.97;;;19.50;57.90;;;;;;4980306;28;88166;-89
2023/04/06 04:59:33;;;;;;;5.82;3.80;;;19.40;57.90;;;;;;4961936;28;90437;-89
2023/04/06 05:01:59;;;;;;;3.95;3.08;;;19.40;57.90;;;;;;4978966;28;87319;-89
2023/04/06 05:04:25;;;;;;;4.55;3.08;;;19.40;57.80;;;;;;4980747;28;87380;-88
2023/04/06 05:06:50;;;;;;;4.20;2.88;;;19.50;57.70;;;;;;4977523;28;91155;-89
2023/04/06 05:09:17;;;;;;;6.13;3.70;;;19.40;57.90;;;;;;4977088;28;91246;-89
2023/04/06 05:11:50;;;;;;;6.07;3.17;;;19.40;54.40;;;;;;4981132;28;88865;-89
2023/04/06 05:14:16;;;;;;;5.70;3.33;;;19.50;57.20;;;;;;4979021;28;87087;-89
2023/04/06 05:16:42;;;;;;;4.60;2.78;;;19.50;57.30;;;;;;4980295;28;88910;-89
2023/04/06 05:19:07;;;;;;;9.32;3.15;;;19.50;57.60;;;;;;4979564;28;88331;-89
2023/04/06 05:21:33;;;;;;;5.82;3.53;;;19.60;57.40;;;;;;4980172;28;87707;-92
2023/04/06 05:23:59;;;;;;;4.78;3.08;;;19.60;57.60;;;;;;4953238;28;90415;-88
2023/04/06 05:26:24;;;;;;;6.53;3.55;;;19.60;57.40;;;;;;4979853;28;88473;-88
2023/04/06 05:28:51;;;;;;;4.85;2.90;;;19.70;58.00;;;;;;4979929;28;88386;-89
2023/04/06 05:31:16;;;;;;;4.85;3.28;;;19.90;58.00;;;;;;4961153;28;88327;-88
2023/04/06 05:33:42;;;;;;;6.85;3.53;;;20.00;57.80;;;;;;4965912;28;87180;-91
2023/04/06 05:36:08;;;;;;;6.10;3.80;;;20.10;57.70;;;;;;4979818;28;87787;-90
2023/04/06 05:38:34;;;;;;;6.30;3.63;;;20.20;57.40;;;;;;4952202;28;89820;-89
2023/04/06 05:40:59;;;;;;;6.80;3.20;;;20.20;57.50;;;;;;4979142;28;87646;-88
2023/04/06 05:43:25;;;;;;;5.20;3.40;;;20.20;57.40;;;;;;4962640;28;88749;-90
2023/04/06 05:45:51;;;;;;;3.67;2.85;;;20.20;57.40;;;;;;4980046;28;88669;-91
2023/04/06 05:48:16;;;;;;;4.70;3.05;;;20.20;57.50;;;;;;4962012;28;91422;-91
2023/04/06 05:54:04;;;;;;;5.72;3.28;;;20.10;57.60;;;;;;4978252;28;87478;-91
2023/04/06 05:56:31;;;;;;;4.28;3.05;;;20.00;57.60;;;;;;4969989;28;92401;-90
2023/04/06 05:58:57;;;;;;;3.63;3.10;;;20.00;57.80;;;;;;4954803;28;91856;-92
2023/04/06 06:01:23;;;;;;;6.38;3.55;;;20.00;58.00;;;;;;4963081;28;86854;-90
2023/04/06 06:03:48;;;;;;;4.72;2.90;;;19.90;58.00;;;;;;4979679;28;88178;-90
2023/04/06 06:06:14;;;;;;;5.10;3.30;;;19.90;58.10;;;;;;4978916;28;88534;-90
2023/04/06 06:09:00;;;;;;;4.05;2.88;;;19.80;58.10;;;;;;4952697;28;90220;-91
2023/04/06 06:11:27;;;;;;;3.97;2.65;;;19.80;58.20;;;;;;4963045;28;86914;-91
2023/04/06 06:13:52;;;;;;;4.50;3.10;;;19.90;56.60;;;;;;4960457;28;90082;-89
2023/04/06 06:16:19;;;;;;;5.95;2.80;;;20.00;57.00;;;;;;4961959;28;95217;-91
2023/04/06 06:18:45;;;;;;;4.63;2.85;;;20.00;57.30;;;;;;4965057;28;90437;-90
2023/04/06 06:21:13;;;;;;;9.95;3.30;;;20.00;56.90;;;;;;4956501;28;87937;-90
2023/04/06 06:23:39;;;;;;;5.35;3.20;;;19.90;57.10;;;;;;4941757;28;88664;-90
2023/04/06 06:26:05;;;;;;;6.65;2.90;;;19.90;57.30;;;;;;4950690;28;90822;-89
2023/04/06 06:28:31;;;;;;;5.65;3.08;;;19.90;57.60;;;;;;4960089;28;87418;-90
2023/04/06 06:30:58;;;;;;;5.15;3.05;;;19.90;57.90;;;;;;4950233;28;87351;-89
2023/04/06 06:33:24;;;;;;;4.05;2.55;;;19.90;58.00;;;;;;4959650;28;86832;-92
2023/04/06 06:35:51;;;;;;;4.80;3.08;;;19.90;57.60;;;;;;4952466;28;91106;-90
2023/04/06 06:38:38;;;;;;;5.00;2.75;;;20.00;57.40;;;;;;4957200;28;91337;-90
2023/04/06 06:41:02;;;;;;;7.53;3.60;;;20.00;57.40;;;;;;4957879;28;87276;-90
2023/04/06 06:43:28;;;;;;;6.82;2.97;;;20.10;57.30;;;;;;4958347;28;87355;-90
2023/04/06 06:45:53;;;;;;;6.13;2.97;;;20.20;57.20;;;;;;4955603;28;89598;-90
2023/04/06 06:48:19;;;;;;;4.80;3.00;;;20.20;57.30;;;;;;4954788;28;91127;-90
2023/04/06 06:50:48;;;;;;;8.35;3.03;;;20.10;57.40;;;;;;4947647;28;87330;-90
2023/04/06 06:53:15;;;;;;;5.63;2.83;;;20.10;57.60;;;;;;4946322;28;90477;-88
2023/04/06 06:55:41;;;;;;;4.38;2.55;;;20.20;57.20;;;;;;4959511;28;88971;-88
2023/04/06 06:58:06;;;;;;;7.47;2.90;;;20.30;57.50;;;;;;4953048;28;90717;-89
2023/04/06 07:00:32;;;;;;;4.57;3.25;;;20.30;57.40;;;;;;4959009;28;87234;-89
2023/04/06 07:02:58;;;;;;;8.43;2.80;;;20.30;57.80;;;;;;4959679;28;89664;-90
2023/04/06 07:05:24;;;;;;;7.25;4.05;;;20.30;58.00;;;;;;4899829;28;90423;-89
2023/04/06 07:07:50;;;;;;;17.17;3.72;;;20.30;56.70;;;;;;4961910;28;87441;-89
2023/04/06 07:10:16;;;;;;;12.85;4.88;;;20.30;58.00;;;;;;4960499;28;87876;-89
2023/04/06 07:12:41;;;;;;;15.48;5.32;;;20.20;58.00;;;;;;4960798;28;87306;-89
2023/04/06 07:15:07;;;;;;;13.73;4.07;;;20.10;58.70;;;;;;4960456;28;87164;-89
2023/04/06 07:17:41;;;;;;;6.85;3.72;;;20.00;59.00;;;;;;4961102;28;87362;-89
2023/04/06 07:20:07;;;;;;;9.98;3.55;;;20.00;59.30;;;;;;4972602;28;87264;-92
2023/04/06 07:22:32;;;;;;;9.20;3.83;;;19.90;59.50;;;;;;4965900;28;89490;-91
2023/04/06 07:24:58;;;;;;;12.50;4.45;;;19.90;59.50;;;;;;4984031;28;87575;-90
2023/04/06 07:27:24;;;;;;;9.38;3.25;;;19.90;59.50;;;;;;4971029;28;87806;-91
2023/04/06 07:29:50;;;;;;;10.88;3.85;;;20.00;59.60;;;;;;4965207;28;87592;-89
2023/04/06 07:32:15;;;;;;;9.93;3.85;;;20.00;59.60;;;;;;4972493;28;87536;-90
2023/04/06 07:34:41;;;;;;;9.68;3.42;;;20.10;60.10;;;;;;4981633;28;89092;-89
2023/04/06 07:37:06;;;;;;;8.93;3.38;;;20.10;59.50;;;;;;4982718;28;88805;-90
2023/04/06 07:39:32;;;;;;;9.95;4.20;;;20.00;59.40;;;;;;4982643;28;87534;-89
2023/04/06 07:41:58;;;;;;;26.15;7.50;;;20.10;59.20;;;;;;4965702;28;90860;-90
2023/04/06 07:44:23;;;;;;;13.38;4.68;;;20.10;57.70;;;;;;4985458;28;87652;-88
2023/04/06 07:46:49;;;;;;;17.23;5.45;;;20.20;58.20;;;;;;4963006;28;89953;-89
2023/04/06 07:49:15;;;;;;;17.52;5.68;;;20.20;58.10;;;;;;4962514;28;87179;-91
2023/04/06 07:51:41;;;;;;;12.77;5.60;;;20.10;57.70;;;;;;4946859;28;90536;-87
2023/04/06 07:54:06;;;;;;;16.58;6.13;;;20.10;58.20;;;;;;4962746;28;88486;-87
2023/04/06 07:56:32;;;;;;;17.52;6.20;;;20.10;57.50;;;;;;4962173;28;88681;-89
2023/04/06 08:05:46;;;;;;;32.22;5.97;;;20.10;58.60;;;;;;4963254;28;87776;-89
2023/04/06 08:08:11;;;;;;;23.08;5.72;;;20.10;58.80;;;;;;4961814;28;88129;-88
2023/04/06 08:10:37;;;;;;;18.98;5.32;;;20.10;58.50;;;;;;4964979;28;87540;-88
2023/04/06 08:13:03;;;;;;;19.85;5.15;;;20.20;58.40;;;;;;4961713;28;89352;-88
2023/04/06 08:15:28;;;;;;;37.15;6.20;;;20.20;58.40;;;;;;4958394;28;90172;-90
2023/04/06 08:17:57;;;;;;;22.58;5.70;;;20.20;58.50;;;;;;4951985;28;90664;-90
2023/04/06 08:20:22;;;;;;;23.92;5.78;;;20.20;58.20;;;;;;4981245;28;87356;-91
2023/04/06 08:22:48;;;;;;;29.77;6.15;;;20.20;58.60;;;;;;4963318;28;89548;-88
2023/04/06 08:25:14;;;;;;;26.92;6.65;;;20.20;59.10;;;;;;4966447;28;88981;-88
2023/04/06 08:27:42;;;;;;;19.55;5.30;;;20.20;58.90;;;;;;4961881;28;92168;-89
2023/04/06 08:30:10;;;;;;;23.13;5.88;;;20.10;59.20;;;;;;4962461;28;87331;-89
2023/04/06 08:32:36;;;;;;;24.63;5.93;;;20.20;59.30;;;;;;4961690;28;89401;-90
2023/04/06 08:42:04;;;;;;;35.13;10.45;;;20.30;59.00;;;;;;4979965;28;87413;-91
2023/04/06 08:44:32;;;;;;;30.35;10.02;;;20.40;58.90;;;;;;4978818;28;87297;-86
2023/04/06 08:46:59;;;;;;;38.50;11.85;;;20.30;59.00;;;;;;4978225;28;88059;-87
2023/04/06 08:49:25;;;;;;;51.03;14.70;;;20.20;60.10;;;;;;4976867;28;92062;-87
2023/04/06 08:51:51;;;;;;;35.65;12.15;;;20.20;60.70;;;;;;4978309;28;88285;-86
2023/04/06 08:54:17;;;;;;;46.38;15.40;;;20.20;59.80;;;;;;4978396;28;87628;-85
2023/04/06 09:03:31;;;;;;;39.38;14.45;;;20.10;59.80;;;;;;4977350;28;87227;-87
2023/04/06 09:05:58;;;;;;;44.78;14.45;;;20.20;59.90;;;;;;4978070;28;87471;-87
2023/04/06 09:08:23;;;;;;;32.10;11.23;;;20.20;59.80;;;;;;4978683;28;88814;-87
2023/04/06 09:10:49;;;;;;;34.05;12.05;;;20.30;59.10;;;;;;4979530;28;88553;-88
2023/04/06 09:13:15;;;;;;;35.55;12.70;;;20.40;58.60;;;;;;4978233;28;86971;-85
2023/04/06 09:15:40;;;;;;;33.47;13.18;;;20.20;59.30;;;;;;4977095;28;87342;-80
2023/04/06 09:18:07;;;;;;;33.95;12.63;;;20.10;59.50;;;;;;4977788;28;89025;-85
2023/04/06 09:20:33;;;;;;;33.42;11.98;;;20.00;60.00;;;;;;4969642;28;89822;-84
2023/04/06 09:22:59;;;;;;;28.75;10.57;;;20.00;60.20;;;;;;4978168;28;86924;-86
2023/04/06 09:25:29;;;;;;;33.15;11.57;;;20.00;59.20;;;;;;4961512;28;89664;-81
2023/04/06 09:28:03;;;;;;;36.17;13.05;;;20.10;59.30;;;;;;4963412;28;90728;-84
2023/04/06 09:30:29;;;;;;;38.22;12.43;;;20.00;60.00;;;;;;4978144;28;87968;-87
2023/04/06 09:32:59;;;;;;;31.67;11.93;;;20.00;65.20;;;;;;4950971;28;87049;-84
2023/04/06 09:35:29;;;;;;;28.90;11.15;;;20.00;70.30;;;;;;4958655;28;88114;-85
2023/04/06 09:37:55;;;;;;;26.10;11.10;;;20.00;73.50;;;;;;4978465;28;88417;-90
2023/04/06 09:40:22;;;;;;;30.08;10.93;;;19.90;74.00;;;;;;4953737;28;90197;-89
2023/04/06 09:42:51;;;;;;;30.58;11.75;;;19.90;75.10;;;;;;4944572;28;88452;-87
2023/04/06 09:45:17;;;;;;;31.48;11.73;;;19.80;74.60;;;;;;4978188;28;87373;-88
2023/04/06 09:47:45;;;;;;;30.65;11.65;;;19.80;73.50;;;;;;4979983;28;88097;-93
2023/04/06 09:50:12;;;;;;;29.90;11.40;;;19.80;72.70;;;;;;4960864;28;90450;-93
2023/04/06 09:52:54;;;;;;;29.95;11.32;;;19.80;71.60;;;;;;4966800;28;86967;-92
2023/04/06 09:55:43;;;;;;;24.65;10.48;;;19.80;70.40;;;;;;4937446;28;92452;-93
2023/04/06 09:58:20;;;;;;;24.70;9.88;;;19.80;68.40;;;;;;4890564;28;91118;-94
2023/04/06 10:00:55;;;;;;;27.98;10.98;;;19.80;66.90;;;;;;4876111;28;89913;-91
2023/04/06 10:03:34;;;;;;;30.55;11.05;;;19.90;67.70;;;;;;4885307;28;87379;-95
2023/04/06 10:06:04;;;;;;;25.02;10.45;;;19.90;66.90;;;;;;4898697;28;90137;-90
2023/04/06 10:08:33;;;;;;;24.02;10.73;;;19.90;66.90;;;;;;4875490;28;91635;-90
2023/04/06 10:11:01;;;;;;;26.40;10.20;;;19.90;66.70;;;;;;4891835;28;92064;-93
2023/04/06 10:13:29;;;;;;;25.60;10.13;;;19.90;66.70;;;;;;4875506;28;86977;-89
2023/04/06 10:15:55;;;;;;;24.77;10.27;;;19.90;67.00;;;;;;4886375;28;89355;-86
2023/04/06 10:18:21;;;;;;;24.85;9.75;;;19.90;66.50;;;;;;4905443;28;88499;-84
2023/04/06 10:21:00;;;;;;;25.50;10.20;;;19.90;66.40;;;;;;4906206;28;87461;-89
2023/04/06 10:23:38;;;;;;;25.92;10.23;;;19.90;66.60;;;;;;4899084;28;87598;-90
2023/04/06 10:26:04;;;;;;;22.83;9.85;;;19.90;66.50;;;;;;4907672;28;87324;-88
2023/04/06 10:28:35;;;;;;;22.30;9.18;;;19.90;65.80;;;;;;4906519;28;88618;-91
2023/04/06 10:31:05;;;;;;;20.33;9.20;;;19.90;65.00;;;;;;4944104;28;91368;-91
2023/04/06 10:33:57;;;;;;;21.38;8.63;;;19.90;65.60;;;;;;4957873;28;88560;-91
2023/04/06 10:36:26;;;;;;;24.77;9.85;;;19.80;65.40;;;;;;4917358;28;89302;-92
2023/04/06 10:39:06;;;;;;;22.17;9.75;;;19.80;65.70;;;;;;4918659;28;90374;-91
2023/04/06 10:41:41;;;;;;;23.08;9.80;;;19.70;65.90;;;;;;4926060;28;90199;-90
2023/04/06 10:44:17;;;;;;;23.40;8.90;;;19.80;65.00;;;;;;4901812;28;87537;-87
2023/04/06 10:46:56;;;;;;;20.33;8.45;;;19.70;65.40;;;;;;4918317;28;88145;-89
2023/04/06 10:49:21;;;;;;;22.10;8.63;;;19.80;64.00;;;;;;4918576;28;93854;-91
2023/04/06 10:51:53;;;;;;;24.90;9.07;;;19.80;65.20;;;;;;4918568;28;87839;-88
2023/04/06 10:54:21;;;;;;;18.80;8.82;;;19.70;65.90;;;;;;4911878;28;86985;-90
2023/04/06 10:56:47;;;;;;;17.05;8.65;;;19.80;65.60;;;;;;4917298;28;90002;-90
2023/04/06 10:59:12;;;;;;;17.70;7.93;;;19.70;65.90;;;;;;4919095;28;91301;-93
2023/04/06 11:01:44;;;;;;;18.15;8.27;;;19.50;65.80;;;;;;4922847;28;91045;-84
2023/04/06 11:04:13;;;;;;;20.48;8.50;;;19.70;65.00;;;;;;4920175;28;87246;-91
2023/04/06 11:06:39;;;;;;;;;;;19.70;64.50;;;;;;4920360;28;89707;-89
2023/04/06 11:09:05;;;;;;;14.85;7.57;;;19.70;64.00;;;;;;4921424;28;90999;-89
2023/04/06 11:11:33;;;;;;;15.90;8.18;;;19.70;64.00;;;;;;4903921;28;90167;-89
2023/04/06 11:13:59;;;;;;;16.52;7.38;;;19.80;64.00;;;;;;4943618;28;87277;-89
2023/04/06 11:16:30;;;;;;;15.50;6.55;;;19.80;63.20;;;;;;4944218;28;89667;-86
2023/04/06 11:19:02;;;;;;;21.88;8.40;;;19.90;63.50;;;;;;4959266;28;90684;-89
2023/04/06 11:21:48;;;;;;;16.10;7.72;;;19.80;61.10;;;;;;4942592;28;90461;-88
2023/04/06 11:24:19;;;;;;;20.00;7.78;;;19.80;59.50;;;;;;4949343;28;88009;-88
2023/04/06 11:26:48;;;;;;;13.05;6.47;;;19.80;58.40;;;;;;4940657;28;90562;-90
2023/04/06 11:29:17;;;;;;;;;;;19.80;58.90;;;;;;4950801;28;91471;-91
2023/04/06 11:31:51;;;;;;;14.77;6.20;;;19.80;58.90;;;;;;4962585;28;90329;-91
2023/04/06 11:34:22;;;;;;;16.55;6.88;;;19.80;58.80;;;;;;4959711;28;87130;-91
2023/04/06 11:36:54;;;;;;;11.68;5.47;;;19.80;58.80;;;;;;4976607;28;89083;-90
2023/04/06 11:39:23;;;;;;;12.30;6.07;;;19.80;58.10;;;;;;4960304;28;89315;-90
2023/04/06 11:41:50;;;;;;;13.73;6.05;;;19.70;58.00;;;;;;4968472;28;90019;-90
2023/04/06 11:44:26;;;;;;;12.82;6.22;;;19.70;58.70;;;;;;4967742;28;86953;-87
2023/04/06 11:46:53;;;;;;;15.25;6.05;;;19.80;58.80;;;;;;4960890;28;89437;-88
2023/04/06 11:49:19;;;;;;;10.43;5.55;;;19.80;59.10;;;;;;4959565;28;96620;-88
2023/04/06 11:58:30;;;;;;;12.90;5.28;;;19.90;59.30;;;;;;4959838;28;90442;-88
2023/04/06 12:01:03;;;;;;;12.25;5.32;;;19.90;59.90;;;;;;4958908;28;90687;-88
2023/04/06 12:03:29;;;;;;;15.13;6.22;;;20.00;59.60;;;;;;4958555;28;90910;-88
2023/04/06 12:05:55;;;;;;;14.55;6.53;;;19.90;60.40;;;;;;4956955;28;87359;-87
2023/04/06 12:08:25;;;;;;;11.45;5.55;;;19.90;61.00;;;;;;4959557;28;90383;-88
2023/04/06 12:10:50;;;;;;;10.82;5.68;;;19.80;62.20;;;;;;4960633;28;88444;-88
2023/04/06 12:13:16;;;;;;;14.35;6.43;;;19.80;63.00;;;;;;4958243;28;90896;-88
2023/04/06 12:15:50;;;;;;;11.18;5.13;;;19.70;62.90;;;;;;4957189;28;88975;-88
2023/04/06 12:18:16;;;;;;;12.70;5.32;;;19.70;63.20;;;;;;4948176;28;89094;-87
2023/04/06 12:24:06;;;;;;;15.55;5.30;;;19.70;63.20;;;;;;4968353;28;87105;-88
2023/04/06 12:26:32;;;;;;;13.00;5.38;;;19.60;63.10;;;;;;4941820;28;87279;-88
2023/04/06 12:29:06;;;;;;;8.90;5.03;;;19.70;63.00;;;;;;4960653;28;87509;-89
2023/04/06 12:31:33;;;;;;;14.18;5.88;;;19.70;63.10;;;;;;4943523;28;89684;-88
2023/04/06 12:34:03;;;;;;;11.13;5.45;;;19.70;63.00;;;;;;4978519;28;87515;-88
2023/04/06 12:36:28;;;;;;;10.20;4.45;;;19.70;62.80;;;;;;4980221;28;87633;-90
2023/04/06 12:38:55;;;;;;;15.05;5.20;;;19.60;62.90;;;;;;4969563;28;90389;-87
2023/04/06 12:41:21;;;;;;;14.68;4.63;;;19.60;63.10;;;;;;4980719;28;93047;-87
2023/04/06 12:43:49;;;;;;;9.27;5.13;;;19.50;63.00;;;;;;4938759;28;90737;-89
2023/04/06 12:46:15;;;;;;;10.70;5.28;;;19.50;63.20;;;;;;4961281;28;87576;-88
2023/04/06 12:48:41;;;;;;;9.32;4.57;;;19.60;63.00;;;;;;4964549;28;87361;-86
2023/04/06 12:51:07;;;;;;;9.82;4.75;;;19.70;63.20;;;;;;4933591;28;91566;-87
2023/04/06 12:53:34;;;;;;;11.52;5.25;;;19.70;63.00;;;;;;4945177;28;89755;-86
2023/04/06 12:56:02;;;;;;;9.85;4.97;;;19.90;63.00;;;;;;4969180;28;87394;-87
2023/04/06 13:08:35;;;;;;;8.43;4.05;;;20.10;62.00;;;;;;4964035;28;88266;-88
2023/04/06 13:11:01;;;;;;;11.57;4.82;;;20.10;62.10;;;;;;4977869;28;87555;-87
2023/04/06 13:13:28;;;;;;;11.73;4.82;;;20.10;62.30;;;;;;4960363;28;88055;-87
2023/04/06 13:15:58;;;;;;;13.57;5.05;;;20.00;62.30;;;;;;4959928;28;87777;-88
2023/04/06 13:18:24;;;;;;;9.98;4.70;;;20.00;63.30;;;;;;4971869;28;87266;-88
2023/04/06 13:20:50;;;;;;;10.55;3.90;;;20.00;62.70;;;;;;4959534;28;87590;-86
2023/04/06 13:23:16;;;;;;;14.35;5.57;;;20.00;62.60;;;;;;4949961;28;90650;-88
2023/04/06 13:26:00;;;;;;;11.93;5.00;;;20.10;61.70;;;;;;4940280;28;90940;-86
2023/04/06 13:28:26;;;;;;;10.88;6.18;;;20.10;61.60;;;;;;4937871;28;87701;-86
2023/04/06 13:30:53;;;;;;;13.07;5.43;;;20.10;62.00;;;;;;4927737;28;90529;-87
2023/04/06 13:33:18;;;;;;;10.80;4.88;;;20.00;62.00;;;;;;4936296;28;92123;-86
2023/04/06 13:35:45;;;;;;;16.45;5.82;;;19.90;62.10;;;;;;4920277;28;92666;-87
2023/04/06 13:38:11;;;;;;;17.00;5.93;;;19.90;63.00;;;;;;4939562;28;87294;-86
2023/04/06 13:40:39;;;;;;;13.95;5.80;;;19.90;62.30;;;;;;4940783;28;87031;-87
2023/04/06 13:43:06;;;;;;;14.90;5.47;;;19.80;62.20;;;;;;4930476;28;88567;-87
2023/04/06 13:45:32;;;;;;;10.55;5.68;;;19.80;62.50;;;;;;4936195;28;91016;-87
2023/04/06 13:47:57;;;;;;;15.65;5.78;;;19.80;62.60;;;;;;4932331;28;87308;-87
2023/04/06 13:50:26;;;;;;;20.92;6.85;;;19.80;62.80;;;;;;4921846;28;89191;-86
2023/04/06 13:52:51;;;;;;;14.45;6.40;;;19.70;62.60;;;;;;4879189;28;90937;-87
2023/04/06 13:55:17;;;;;;;12.00;5.32;;;19.70;62.70;;;;;;4918260;28;88610;-86